sensor_id;sensor_type;location;lat;lon;timestamp;P1;durP1;ratioP1;P2;durP2;ratioP2
51244;SDS011;37840;47.562;18.738;2023-04-20T00:02:11;12.13;;;9.20;;
51244;SDS011;37840;47.562;18.738;2023-04-20T00:04:39;10.13;;;8.70;;
51244;SDS011;37840;47.562;18.738;2023-04-20T00:07:24;10.18;;;8.82;;
51244;SDS011;37840;47.562;18.738;2023-04-20T00:09:51;10.32;;;8.77;;
51244;SDS011;37840;47.562;18.738;2023-04-20T00:12:17;10.27;;;8.80;;
51244;SDS011;37840;47.562;18.738;2023-04-20T00:14:43;11.12;;;8.77;;
51244;SDS011;37840;47.562;18.738;2023-04-20T00:17:09;10.63;;;8.85;;
51244;SDS011;37840;47.562;18.738;2023-04-20T00:19:37;10.85;;;9.20;;
51244;SDS011;37840;47.562;18.738;2023-04-20T00:22:03;9.55;;;8.48;;
51244;SDS011;37840;47.562;18.738;2023-04-20T00:24:29;11.57;;;9.57;;
51244;SDS011;37840;47.562;18.738;2023-04-20T00:26:55;11.80;;;9.60;;
51244;SDS011;37840;47.562;18.738;2023-04-20T00:29:21;10.35;;;9.25;;
51244;SDS011;37840;47.562;18.738;2023-04-20T00:31:47;10.93;;;9.00;;
51244;SDS011;37840;47.562;18.738;2023-04-20T00:34:14;9.90;;;8.77;;
51244;SDS011;37840;47.562;18.738;2023-04-20T00:36:40;11.32;;;8.68;;
51244;SDS011;37840;47.562;18.738;2023-04-20T00:39:06;11.35;;;9.70;;
51244;SDS011;37840;47.562;18.738;2023-04-20T00:41:32;10.75;;;9.05;;
51244;SDS011;37840;47.562;18.738;2023-04-20T00:43:58;9.73;;;8.45;;
51244;SDS011;37840;47.562;18.738;2023-04-20T00:46:24;9.90;;;8.73;;
51244;SDS011;37840;47.562;18.738;2023-04-20T00:48:50;11.48;;;9.65;;
51244;SDS011;37840;47.562;18.738;2023-04-20T00:51:18;11.75;;;9.63;;
51244;SDS011;37840;47.562;18.738;2023-04-20T00:53:45;12.15;;;9.85;;
51244;SDS011;37840;47.562;18.738;2023-04-20T00:56:12;10.90;;;9.52;;
51244;SDS011;37840;47.562;18.738;2023-04-20T00:58:40;10.65;;;9.05;;
51244;SDS011;37840;47.562;18.738;2023-04-20T01:01:06;13.85;;;9.77;;
51244;SDS011;37840;47.562;18.738;2023-04-20T01:03:33;11.70;;;9.23;;
51244;SDS011;37840;47.562;18.738;2023-04-20T01:06:00;11.68;;;9.82;;
51244;SDS011;37840;47.562;18.738;2023-04-20T01:08:27;10.77;;;9.15;;
51244;SDS011;37840;47.562;18.738;2023-04-20T01:10:53;14.38;;;9.57;;
51244;SDS011;37840;47.562;18.738;2023-04-20T01:13:19;11.48;;;10.10;;
51244;SDS011;37840;47.562;18.738;2023-04-20T01:15:45;13.50;;;9.27;;
51244;SDS011;37840;47.562;18.738;2023-04-20T01:18:11;50.05;;;11.98;;
51244;SDS011;37840;47.562;18.738;2023-04-20T01:20:38;116.78;;;16.87;;
51244;SDS011;37840;47.562;18.738;2023-04-20T01:23:04;45.72;;;12.35;;
51244;SDS011;37840;47.562;18.738;2023-04-20T01:25:30;11.77;;;9.70;;
51244;SDS011;37840;47.562;18.738;2023-04-20T01:27:56;12.18;;;9.73;;
51244;SDS011;37840;47.562;18.738;2023-04-20T01:30:21;11.50;;;9.35;;
51244;SDS011;37840;47.562;18.738;2023-04-20T01:32:47;10.63;;;9.25;;
51244;SDS011;37840;47.562;18.738;2023-04-20T01:35:13;11.32;;;9.10;;
51244;SDS011;37840;47.562;18.738;2023-04-20T01:37:40;10.85;;;9.35;;
51244;SDS011;37840;47.562;18.738;2023-04-20T01:40:10;11.27;;;9.30;;
51244;SDS011;37840;47.562;18.738;2023-04-20T01:42:37;11.82;;;9.93;;
51244;SDS011;37840;47.562;18.738;2023-04-20T01:45:04;10.80;;;9.48;;
51244;SDS011;37840;47.562;18.738;2023-04-20T01:47:31;11.82;;;9.20;;
51244;SDS011;37840;47.562;18.738;2023-04-20T01:49:58;83.93;;;15.98;;
51244;SDS011;37840;47.562;18.738;2023-04-20T01:52:24;16.45;;;9.18;;
51244;SDS011;37840;47.562;18.738;2023-04-20T01:54:50;10.82;;;9.38;;
51244;SDS011;37840;47.562;18.738;2023-04-20T01:57:16;11.12;;;9.55;;
51244;SDS011;37840;47.562;18.738;2023-04-20T01:59:42;11.35;;;9.45;;
51244;SDS011;37840;47.562;18.738;2023-04-20T02:02:08;13.05;;;9.27;;
51244;SDS011;37840;47.562;18.738;2023-04-20T02:04:34;12.32;;;8.75;;
51244;SDS011;37840;47.562;18.738;2023-04-20T02:07:00;12.37;;;9.05;;
51244;SDS011;37840;47.562;18.738;2023-04-20T02:09:26;11.52;;;9.10;;
51244;SDS011;37840;47.562;18.738;2023-04-20T02:11:52;11.93;;;9.35;;
51244;SDS011;37840;47.562;18.738;2023-04-20T02:14:17;11.48;;;9.15;;
51244;SDS011;37840;47.562;18.738;2023-04-20T02:16:43;11.18;;;9.10;;
51244;SDS011;37840;47.562;18.738;2023-04-20T02:19:10;11.57;;;9.82;;
51244;SDS011;37840;47.562;18.738;2023-04-20T02:21:35;10.63;;;9.07;;
51244;SDS011;37840;47.562;18.738;2023-04-20T02:24:01;11.35;;;9.07;;
51244;SDS011;37840;47.562;18.738;2023-04-20T02:26:27;11.90;;;8.93;;
51244;SDS011;37840;47.562;18.738;2023-04-20T02:28:53;12.20;;;9.85;;
51244;SDS011;37840;47.562;18.738;2023-04-20T02:31:19;12.30;;;9.77;;
51244;SDS011;37840;47.562;18.738;2023-04-20T02:33:45;13.40;;;10.40;;
51244;SDS011;37840;47.562;18.738;2023-04-20T02:36:12;13.15;;;9.60;;
51244;SDS011;37840;47.562;18.738;2023-04-20T02:38:38;13.45;;;9.48;;
51244;SDS011;37840;47.562;18.738;2023-04-20T02:41:04;12.52;;;10.40;;
51244;SDS011;37840;47.562;18.738;2023-04-20T02:43:30;11.98;;;9.60;;
51244;SDS011;37840;47.562;18.738;2023-04-20T02:45:56;12.73;;;9.90;;
51244;SDS011;37840;47.562;18.738;2023-04-20T02:48:21;11.50;;;9.60;;
51244;SDS011;37840;47.562;18.738;2023-04-20T02:50:47;13.20;;;10.13;;
51244;SDS011;37840;47.562;18.738;2023-04-20T02:53:13;13.73;;;10.88;;
51244;SDS011;37840;47.562;18.738;2023-04-20T02:55:39;13.45;;;10.15;;
51244;SDS011;37840;47.562;18.738;2023-04-20T02:58:05;12.32;;;9.60;;
51244;SDS011;37840;47.562;18.738;2023-04-20T03:00:31;12.88;;;10.05;;
51244;SDS011;37840;47.562;18.738;2023-04-20T03:02:57;10.95;;;8.88;;
51244;SDS011;37840;47.562;18.738;2023-04-20T03:05:23;11.68;;;9.05;;
51244;SDS011;37840;47.562;18.738;2023-04-20T03:07:49;14.75;;;10.57;;
51244;SDS011;37840;47.562;18.738;2023-04-20T03:10:15;11.35;;;9.52;;
51244;SDS011;37840;47.562;18.738;2023-04-20T03:12:41;11.88;;;9.65;;
51244;SDS011;37840;47.562;18.738;2023-04-20T03:15:07;13.15;;;9.98;;
51244;SDS011;37840;47.562;18.738;2023-04-20T03:17:34;13.23;;;11.07;;
51244;SDS011;37840;47.562;18.738;2023-04-20T03:19:59;13.20;;;10.45;;
51244;SDS011;37840;47.562;18.738;2023-04-20T03:22:25;14.30;;;10.60;;
51244;SDS011;37840;47.562;18.738;2023-04-20T03:24:51;14.40;;;10.82;;
51244;SDS011;37840;47.562;18.738;2023-04-20T03:27:17;13.40;;;10.55;;
51244;SDS011;37840;47.562;18.738;2023-04-20T03:29:43;13.85;;;10.70;;
51244;SDS011;37840;47.562;18.738;2023-04-20T03:32:09;13.77;;;11.77;;
51244;SDS011;37840;47.562;18.738;2023-04-20T03:34:35;12.95;;;10.40;;
51244;SDS011;37840;47.562;18.738;2023-04-20T03:37:01;14.48;;;10.35;;
51244;SDS011;37840;47.562;18.738;2023-04-20T03:39:27;12.70;;;10.43;;
51244;SDS011;37840;47.562;18.738;2023-04-20T03:41:53;14.65;;;10.27;;
51244;SDS011;37840;47.562;18.738;2023-04-20T03:44:19;12.77;;;10.30;;
51244;SDS011;37840;47.562;18.738;2023-04-20T03:46:45;14.02;;;10.00;;
51244;SDS011;37840;47.562;18.738;2023-04-20T03:49:10;12.15;;;9.65;;
51244;SDS011;37840;47.562;18.738;2023-04-20T03:51:36;14.40;;;11.23;;
51244;SDS011;37840;47.562;18.738;2023-04-20T03:54:02;14.73;;;11.25;;
51244;SDS011;37840;47.562;18.738;2023-04-20T03:56:30;14.82;;;11.63;;
51244;SDS011;37840;47.562;18.738;2023-04-20T03:58:56;14.15;;;10.65;;
51244;SDS011;37840;47.562;18.738;2023-04-20T04:01:22;18.25;;;10.20;;
51244;SDS011;37840;47.562;18.738;2023-04-20T04:03:48;14.52;;;11.32;;
51244;SDS011;37840;47.562;18.738;2023-04-20T04:06:13;13.77;;;10.70;;
51244;SDS011;37840;47.562;18.738;2023-04-20T04:08:40;12.55;;;10.45;;
51244;SDS011;37840;47.562;18.738;2023-04-20T04:11:05;13.70;;;10.50;;
51244;SDS011;37840;47.562;18.738;2023-04-20T04:13:31;16.62;;;11.00;;
51244;SDS011;37840;47.562;18.738;2023-04-20T04:15:57;15.15;;;10.73;;
51244;SDS011;37840;47.562;18.738;2023-04-20T04:18:23;13.77;;;10.43;;
51244;SDS011;37840;47.562;18.738;2023-04-20T04:20:49;12.82;;;10.27;;
51244;SDS011;37840;47.562;18.738;2023-04-20T04:23:16;12.75;;;9.80;;
51244;SDS011;37840;47.562;18.738;2023-04-20T04:25:42;14.93;;;10.50;;
51244;SDS011;37840;47.562;18.738;2023-04-20T04:28:08;14.02;;;11.15;;
51244;SDS011;37840;47.562;18.738;2023-04-20T04:30:34;13.93;;;10.80;;
51244;SDS011;37840;47.562;18.738;2023-04-20T04:32:59;13.88;;;11.02;;
51244;SDS011;37840;47.562;18.738;2023-04-20T04:35:29;13.23;;;10.50;;
51244;SDS011;37840;47.562;18.738;2023-04-20T04:37:56;15.27;;;11.18;;
51244;SDS011;37840;47.562;18.738;2023-04-20T04:40:22;14.63;;;10.95;;
51244;SDS011;37840;47.562;18.738;2023-04-20T04:42:48;18.70;;;12.25;;
51244;SDS011;37840;47.562;18.738;2023-04-20T04:45:14;14.98;;;11.30;;
51244;SDS011;37840;47.562;18.738;2023-04-20T04:47:43;18.05;;;12.15;;
51244;SDS011;37840;47.562;18.738;2023-04-20T04:50:09;17.00;;;12.40;;
51244;SDS011;37840;47.562;18.738;2023-04-20T04:52:36;16.73;;;12.65;;
51244;SDS011;37840;47.562;18.738;2023-04-20T04:55:02;15.93;;;11.85;;
51244;SDS011;37840;47.562;18.738;2023-04-20T04:57:32;14.85;;;11.77;;
51244;SDS011;37840;47.562;18.738;2023-04-20T04:59:58;14.93;;;12.18;;
51244;SDS011;37840;47.562;18.738;2023-04-20T05:02:24;17.33;;;13.15;;
51244;SDS011;37840;47.562;18.738;2023-04-20T05:04:50;16.45;;;12.18;;
51244;SDS011;37840;47.562;18.738;2023-04-20T05:07:16;15.77;;;12.68;;
51244;SDS011;37840;47.562;18.738;2023-04-20T05:09:42;16.55;;;12.50;;
51244;SDS011;37840;47.562;18.738;2023-04-20T05:12:08;17.17;;;11.88;;
51244;SDS011;37840;47.562;18.738;2023-04-20T05:14:34;15.60;;;12.27;;
51244;SDS011;37840;47.562;18.738;2023-04-20T05:17:00;15.93;;;12.68;;
51244;SDS011;37840;47.562;18.738;2023-04-20T05:19:26;16.48;;;13.00;;
51244;SDS011;37840;47.562;18.738;2023-04-20T05:21:52;15.35;;;12.25;;
51244;SDS011;37840;47.562;18.738;2023-04-20T05:24:18;17.90;;;11.88;;
51244;SDS011;37840;47.562;18.738;2023-04-20T05:26:44;16.10;;;12.95;;
51244;SDS011;37840;47.562;18.738;2023-04-20T05:29:11;17.73;;;12.20;;
51244;SDS011;37840;47.562;18.738;2023-04-20T05:31:37;14.77;;;11.43;;
51244;SDS011;37840;47.562;18.738;2023-04-20T05:34:03;15.00;;;11.65;;
51244;SDS011;37840;47.562;18.738;2023-04-20T05:36:29;14.10;;;11.15;;
51244;SDS011;37840;47.562;18.738;2023-04-20T05:38:55;17.30;;;12.25;;
51244;SDS011;37840;47.562;18.738;2023-04-20T05:41:21;15.13;;;11.98;;
51244;SDS011;37840;47.562;18.738;2023-04-20T05:43:53;14.65;;;11.40;;
51244;SDS011;37840;47.562;18.738;2023-04-20T05:46:20;15.55;;;12.23;;
51244;SDS011;37840;47.562;18.738;2023-04-20T05:48:46;14.15;;;11.48;;
51244;SDS011;37840;47.562;18.738;2023-04-20T05:51:12;14.00;;;11.05;;
51244;SDS011;37840;47.562;18.738;2023-04-20T05:53:39;14.95;;;11.75;;
51244;SDS011;37840;47.562;18.738;2023-04-20T05:56:05;13.43;;;10.75;;
51244;SDS011;37840;47.562;18.738;2023-04-20T05:58:32;15.02;;;11.63;;
51244;SDS011;37840;47.562;18.738;2023-04-20T06:00:59;15.52;;;11.50;;
51244;SDS011;37840;47.562;18.738;2023-04-20T06:03:27;12.85;;;10.80;;
51244;SDS011;37840;47.562;18.738;2023-04-20T06:05:52;15.50;;;11.63;;
51244;SDS011;37840;47.562;18.738;2023-04-20T06:08:18;13.98;;;11.38;;
51244;SDS011;37840;47.562;18.738;2023-04-20T06:10:44;15.55;;;12.55;;
51244;SDS011;37840;47.562;18.738;2023-04-20T06:13:10;15.13;;;12.13;;
51244;SDS011;37840;47.562;18.738;2023-04-20T06:15:36;13.10;;;10.73;;
51244;SDS011;37840;47.562;18.738;2023-04-20T06:18:02;14.23;;;11.20;;
51244;SDS011;37840;47.562;18.738;2023-04-20T06:20:28;11.38;;;10.10;;
51244;SDS011;37840;47.562;18.738;2023-04-20T06:22:54;11.48;;;9.00;;
51244;SDS011;37840;47.562;18.738;2023-04-20T06:25:21;11.68;;;8.90;;
51244;SDS011;37840;47.562;18.738;2023-04-20T06:27:47;11.25;;;9.70;;
51244;SDS011;37840;47.562;18.738;2023-04-20T06:30:13;11.95;;;10.05;;
51244;SDS011;37840;47.562;18.738;2023-04-20T06:32:39;11.55;;;9.07;;
51244;SDS011;37840;47.562;18.738;2023-04-20T06:35:05;12.88;;;9.48;;
51244;SDS011;37840;47.562;18.738;2023-04-20T06:37:31;10.93;;;9.70;;
51244;SDS011;37840;47.562;18.738;2023-04-20T06:39:57;13.70;;;10.63;;
51244;SDS011;37840;47.562;18.738;2023-04-20T06:42:24;11.55;;;8.95;;
51244;SDS011;37840;47.562;18.738;2023-04-20T06:44:50;9.27;;;8.25;;
51244;SDS011;37840;47.562;18.738;2023-04-20T06:47:16;10.43;;;8.77;;
51244;SDS011;37840;47.562;18.738;2023-04-20T06:49:42;10.75;;;8.93;;
51244;SDS011;37840;47.562;18.738;2023-04-20T06:52:08;10.50;;;8.98;;
51244;SDS011;37840;47.562;18.738;2023-04-20T06:54:34;9.88;;;8.38;;
51244;SDS011;37840;47.562;18.738;2023-04-20T06:57:00;10.38;;;8.48;;
51244;SDS011;37840;47.562;18.738;2023-04-20T06:59:26;9.90;;;7.72;;
51244;SDS011;37840;47.562;18.738;2023-04-20T07:01:52;9.95;;;8.85;;
51244;SDS011;37840;47.562;18.738;2023-04-20T07:04:17;9.57;;;8.38;;
51244;SDS011;37840;47.562;18.738;2023-04-20T07:06:43;8.65;;;7.65;;
51244;SDS011;37840;47.562;18.738;2023-04-20T07:09:09;8.88;;;7.65;;
51244;SDS011;37840;47.562;18.738;2023-04-20T07:11:35;7.75;;;6.95;;
51244;SDS011;37840;47.562;18.738;2023-04-20T07:14:01;8.77;;;7.72;;
51244;SDS011;37840;47.562;18.738;2023-04-20T07:16:27;8.00;;;7.20;;
51244;SDS011;37840;47.562;18.738;2023-04-20T07:18:53;8.50;;;7.12;;
51244;SDS011;37840;47.562;18.738;2023-04-20T07:21:19;6.90;;;6.20;;
51244;SDS011;37840;47.562;18.738;2023-04-20T07:23:45;6.75;;;5.47;;
51244;SDS011;37840;47.562;18.738;2023-04-20T07:26:12;6.05;;;5.25;;
51244;SDS011;37840;47.562;18.738;2023-04-20T07:28:38;5.20;;;4.35;;
51244;SDS011;37840;47.562;18.738;2023-04-20T07:31:05;6.37;;;5.18;;
51244;SDS011;37840;47.562;18.738;2023-04-20T07:33:30;6.40;;;5.60;;
51244;SDS011;37840;47.562;18.738;2023-04-20T07:35:56;8.10;;;5.90;;
51244;SDS011;37840;47.562;18.738;2023-04-20T07:38:23;6.68;;;5.55;;
51244;SDS011;37840;47.562;18.738;2023-04-20T07:40:48;6.68;;;5.97;;
51244;SDS011;37840;47.562;18.738;2023-04-20T07:43:14;6.78;;;5.95;;
51244;SDS011;37840;47.562;18.738;2023-04-20T07:45:40;6.57;;;5.50;;
51244;SDS011;37840;47.562;18.738;2023-04-20T07:48:07;6.22;;;5.40;;
51244;SDS011;37840;47.562;18.738;2023-04-20T07:50:36;6.18;;;5.43;;
51244;SDS011;37840;47.562;18.738;2023-04-20T07:53:03;6.10;;;5.18;;
51244;SDS011;37840;47.562;18.738;2023-04-20T07:55:29;7.47;;;5.65;;
51244;SDS011;37840;47.562;18.738;2023-04-20T07:57:55;7.93;;;6.37;;
51244;SDS011;37840;47.562;18.738;2023-04-20T08:00:22;7.72;;;5.72;;
51244;SDS011;37840;47.562;18.738;2023-04-20T08:02:49;8.05;;;5.62;;
51244;SDS011;37840;47.562;18.738;2023-04-20T08:05:15;8.18;;;6.07;;
51244;SDS011;37840;47.562;18.738;2023-04-20T08:07:41;9.15;;;5.80;;
51244;SDS011;37840;47.562;18.738;2023-04-20T08:10:07;7.22;;;6.35;;
51244;SDS011;37840;47.562;18.738;2023-04-20T08:12:33;8.30;;;6.37;;
51244;SDS011;37840;47.562;18.738;2023-04-20T08:14:59;11.30;;;6.72;;
51244;SDS011;37840;47.562;18.738;2023-04-20T08:17:26;7.28;;;6.07;;
51244;SDS011;37840;47.562;18.738;2023-04-20T08:19:52;9.23;;;6.25;;
51244;SDS011;37840;47.562;18.738;2023-04-20T08:22:18;6.90;;;5.80;;
51244;SDS011;37840;47.562;18.738;2023-04-20T08:24:44;6.82;;;5.90;;
51244;SDS011;37840;47.562;18.738;2023-04-20T08:27:11;7.65;;;6.10;;
51244;SDS011;37840;47.562;18.738;2023-04-20T08:29:38;8.23;;;6.72;;
51244;SDS011;37840;47.562;18.738;2023-04-20T08:32:04;7.47;;;6.12;;
51244;SDS011;37840;47.562;18.738;2023-04-20T08:34:33;6.00;;;5.40;;
51244;SDS011;37840;47.562;18.738;2023-04-20T08:37:00;6.97;;;6.00;;
51244;SDS011;37840;47.562;18.738;2023-04-20T08:39:26;7.68;;;6.87;;
51244;SDS011;37840;47.562;18.738;2023-04-20T08:41:53;8.90;;;7.00;;
51244;SDS011;37840;47.562;18.738;2023-04-20T08:44:20;7.90;;;7.10;;
51244;SDS011;37840;47.562;18.738;2023-04-20T08:46:47;8.70;;;7.47;;
51244;SDS011;37840;47.562;18.738;2023-04-20T08:49:17;7.45;;;6.75;;
51244;SDS011;37840;47.562;18.738;2023-04-20T08:51:44;9.13;;;7.50;;
51244;SDS011;37840;47.562;18.738;2023-04-20T08:54:11;8.88;;;7.97;;
51244;SDS011;37840;47.562;18.738;2023-04-20T08:56:38;9.48;;;6.32;;
51244;SDS011;37840;47.562;18.738;2023-04-20T08:59:06;6.37;;;5.65;;
51244;SDS011;37840;47.562;18.738;2023-04-20T09:01:41;7.65;;;6.60;;
51244;SDS011;37840;47.562;18.738;2023-04-20T09:04:21;8.18;;;6.22;;
51244;SDS011;37840;47.562;18.738;2023-04-20T09:06:49;9.60;;;5.93;;
51244;SDS011;37840;47.562;18.738;2023-04-20T09:09:17;6.53;;;5.82;;
51244;SDS011;37840;47.562;18.738;2023-04-20T09:11:44;6.50;;;5.80;;
51244;SDS011;37840;47.562;18.738;2023-04-20T09:14:12;7.15;;;5.57;;
51244;SDS011;37840;47.562;18.738;2023-04-20T09:16:50;7.03;;;6.10;;
51244;SDS011;37840;47.562;18.738;2023-04-20T09:19:24;9.05;;;5.80;;
51244;SDS011;37840;47.562;18.738;2023-04-20T09:21:52;9.77;;;5.75;;
51244;SDS011;37840;47.562;18.738;2023-04-20T09:24:19;6.43;;;5.70;;
51244;SDS011;37840;47.562;18.738;2023-04-20T09:26:46;7.30;;;6.10;;
51244;SDS011;37840;47.562;18.738;2023-04-20T09:29:19;6.20;;;5.18;;
51244;SDS011;37840;47.562;18.738;2023-04-20T09:31:46;7.28;;;5.65;;
51244;SDS011;37840;47.562;18.738;2023-04-20T09:34:13;7.00;;;5.93;;
51244;SDS011;37840;47.562;18.738;2023-04-20T09:36:40;6.10;;;5.18;;
51244;SDS011;37840;47.562;18.738;2023-04-20T09:39:08;5.95;;;5.35;;
51244;SDS011;37840;47.562;18.738;2023-04-20T09:41:36;7.57;;;5.65;;
51244;SDS011;37840;47.562;18.738;2023-04-20T09:44:03;6.43;;;5.78;;
51244;SDS011;37840;47.562;18.738;2023-04-20T09:46:31;7.78;;;5.25;;
51244;SDS011;37840;47.562;18.738;2023-04-20T09:48:59;6.82;;;5.47;;
51244;SDS011;37840;47.562;18.738;2023-04-20T09:51:28;5.22;;;4.15;;
51244;SDS011;37840;47.562;18.738;2023-04-20T09:53:57;5.12;;;4.18;;
51244;SDS011;37840;47.562;18.738;2023-04-20T09:56:24;4.85;;;4.05;;
51244;SDS011;37840;47.562;18.738;2023-04-20T09:58:52;5.12;;;4.22;;
51244;SDS011;37840;47.562;18.738;2023-04-20T10:01:19;4.25;;;3.78;;
51244;SDS011;37840;47.562;18.738;2023-04-20T10:03:49;5.37;;;4.53;;
51244;SDS011;37840;47.562;18.738;2023-04-20T10:06:21;4.47;;;4.00;;
51244;SDS011;37840;47.562;18.738;2023-04-20T10:08:48;5.12;;;3.83;;
51244;SDS011;37840;47.562;18.738;2023-04-20T10:11:29;4.10;;;3.45;;
51244;SDS011;37840;47.562;18.738;2023-04-20T10:14:16;5.55;;;4.05;;
51244;SDS011;37840;47.562;18.738;2023-04-20T10:16:44;7.18;;;4.93;;
51244;SDS011;37840;47.562;18.738;2023-04-20T10:19:11;9.00;;;5.72;;
51244;SDS011;37840;47.562;18.738;2023-04-20T10:21:44;5.20;;;4.70;;
51244;SDS011;37840;47.562;18.738;2023-04-20T10:24:11;7.05;;;4.95;;
51244;SDS011;37840;47.562;18.738;2023-04-20T10:26:39;6.97;;;5.47;;
51244;SDS011;37840;47.562;18.738;2023-04-20T10:29:22;4.87;;;4.43;;
51244;SDS011;37840;47.562;18.738;2023-04-20T10:31:51;5.93;;;4.82;;
51244;SDS011;37840;47.562;18.738;2023-04-20T10:34:34;5.47;;;4.90;;
51244;SDS011;37840;47.562;18.738;2023-04-20T10:37:08;5.40;;;4.90;;
51244;SDS011;37840;47.562;18.738;2023-04-20T10:39:42;6.43;;;5.22;;
51244;SDS011;37840;47.562;18.738;2023-04-20T10:42:09;6.40;;;5.80;;
51244;SDS011;37840;47.562;18.738;2023-04-20T10:44:35;7.43;;;5.70;;
51244;SDS011;37840;47.562;18.738;2023-04-20T10:47:27;5.57;;;4.97;;
51244;SDS011;37840;47.562;18.738;2023-04-20T10:49:54;6.18;;;5.03;;
51244;SDS011;37840;47.562;18.738;2023-04-20T10:52:34;6.10;;;4.40;;
51244;SDS011;37840;47.562;18.738;2023-04-20T10:55:02;5.18;;;4.68;;
51244;SDS011;37840;47.562;18.738;2023-04-20T10:57:28;6.25;;;4.95;;
51244;SDS011;37840;47.562;18.738;2023-04-20T10:59:54;6.00;;;5.10;;
51244;SDS011;37840;47.562;18.738;2023-04-20T11:02:20;5.57;;;4.75;;
51244;SDS011;37840;47.562;18.738;2023-04-20T11:04:46;6.95;;;5.25;;
51244;SDS011;37840;47.562;18.738;2023-04-20T11:07:12;9.00;;;5.55;;
51244;SDS011;37840;47.562;18.738;2023-04-20T11:09:38;5.68;;;5.07;;
51244;SDS011;37840;47.562;18.738;2023-04-20T11:12:05;5.95;;;4.93;;
51244;SDS011;37840;47.562;18.738;2023-04-20T11:14:33;4.90;;;4.40;;
51244;SDS011;37840;47.562;18.738;2023-04-20T11:17:03;6.82;;;4.72;;
51244;SDS011;37840;47.562;18.738;2023-04-20T11:19:30;5.97;;;4.25;;
51244;SDS011;37840;47.562;18.738;2023-04-20T11:21:58;4.95;;;4.40;;
51244;SDS011;37840;47.562;18.738;2023-04-20T11:24:24;5.22;;;4.03;;
51244;SDS011;37840;47.562;18.738;2023-04-20T11:26:53;4.12;;;3.58;;
51244;SDS011;37840;47.562;18.738;2023-04-20T11:29:36;4.43;;;3.83;;
51244;SDS011;37840;47.562;18.738;2023-04-20T11:32:10;5.50;;;4.15;;
51244;SDS011;37840;47.562;18.738;2023-04-20T11:34:37;4.55;;;3.97;;
51244;SDS011;37840;47.562;18.738;2023-04-20T11:37:04;4.07;;;3.50;;
51244;SDS011;37840;47.562;18.738;2023-04-20T11:39:31;6.70;;;4.78;;
51244;SDS011;37840;47.562;18.738;2023-04-20T11:41:58;4.80;;;4.30;;
51244;SDS011;37840;47.562;18.738;2023-04-20T11:44:24;5.72;;;4.35;;
51244;SDS011;37840;47.562;18.738;2023-04-20T11:46:52;4.60;;;3.90;;
51244;SDS011;37840;47.562;18.738;2023-04-20T11:49:19;5.20;;;3.83;;
51244;SDS011;37840;47.562;18.738;2023-04-20T11:51:46;4.22;;;3.20;;
51244;SDS011;37840;47.562;18.738;2023-04-20T11:54:12;4.70;;;3.40;;
51244;SDS011;37840;47.562;18.738;2023-04-20T11:56:39;4.22;;;3.83;;
51244;SDS011;37840;47.562;18.738;2023-04-20T11:59:09;4.35;;;3.50;;
51244;SDS011;37840;47.562;18.738;2023-04-20T12:01:36;4.03;;;3.45;;
51244;SDS011;37840;47.562;18.738;2023-04-20T12:04:04;3.70;;;3.33;;
51244;SDS011;37840;47.562;18.738;2023-04-20T12:06:30;3.90;;;3.47;;
51244;SDS011;37840;47.562;18.738;2023-04-20T12:08:57;4.32;;;3.92;;
51244;SDS011;37840;47.562;18.738;2023-04-20T12:11:23;4.30;;;3.30;;
51244;SDS011;37840;47.562;18.738;2023-04-20T12:13:49;4.00;;;3.50;;
51244;SDS011;37840;47.562;18.738;2023-04-20T12:16:16;4.12;;;3.72;;
51244;SDS011;37840;47.562;18.738;2023-04-20T12:18:42;4.75;;;3.30;;
51244;SDS011;37840;47.562;18.738;2023-04-20T12:21:08;6.15;;;3.80;;
51244;SDS011;37840;47.562;18.738;2023-04-20T12:23:34;4.37;;;3.97;;
51244;SDS011;37840;47.562;18.738;2023-04-20T12:26:01;5.20;;;3.40;;
51244;SDS011;37840;47.562;18.738;2023-04-20T12:28:29;7.78;;;4.03;;
51244;SDS011;37840;47.562;18.738;2023-04-20T12:30:55;5.07;;;3.30;;
51244;SDS011;37840;47.562;18.738;2023-04-20T12:33:21;4.72;;;3.80;;
51244;SDS011;37840;47.562;18.738;2023-04-20T12:35:47;4.85;;;4.20;;
51244;SDS011;37840;47.562;18.738;2023-04-20T12:38:13;3.97;;;3.22;;
51244;SDS011;37840;47.562;18.738;2023-04-20T12:40:39;4.90;;;3.03;;
51244;SDS011;37840;47.562;18.738;2023-04-20T12:43:05;3.75;;;3.40;;
51244;SDS011;37840;47.562;18.738;2023-04-20T12:45:31;7.30;;;3.92;;
51244;SDS011;37840;47.562;18.738;2023-04-20T12:47:58;6.12;;;3.30;;
51244;SDS011;37840;47.562;18.738;2023-04-20T12:50:24;4.47;;;3.40;;
51244;SDS011;37840;47.562;18.738;2023-04-20T12:52:50;4.25;;;3.50;;
51244;SDS011;37840;47.562;18.738;2023-04-20T12:55:17;3.40;;;3.10;;
51244;SDS011;37840;47.562;18.738;2023-04-20T12:57:44;4.65;;;3.50;;
51244;SDS011;37840;47.562;18.738;2023-04-20T13:00:10;4.30;;;3.80;;
51244;SDS011;37840;47.562;18.738;2023-04-20T13:02:39;4.75;;;3.30;;
51244;SDS011;37840;47.562;18.738;2023-04-20T13:05:05;4.30;;;3.90;;
51244;SDS011;37840;47.562;18.738;2023-04-20T13:07:32;5.65;;;3.62;;
51244;SDS011;37840;47.562;18.738;2023-04-20T13:09:58;3.80;;;3.50;;
51244;SDS011;37840;47.562;18.738;2023-04-20T13:12:24;5.05;;;3.60;;
51244;SDS011;37840;47.562;18.738;2023-04-20T13:14:51;3.47;;;3.17;;
51244;SDS011;37840;47.562;18.738;2023-04-20T13:17:17;4.05;;;3.33;;
51244;SDS011;37840;47.562;18.738;2023-04-20T13:19:47;4.90;;;4.10;;
51244;SDS011;37840;47.562;18.738;2023-04-20T13:22:14;4.03;;;3.50;;
51244;SDS011;37840;47.562;18.738;2023-04-20T13:24:41;4.55;;;3.97;;
51244;SDS011;37840;47.562;18.738;2023-04-20T13:27:07;4.05;;;3.65;;
51244;SDS011;37840;47.562;18.738;2023-04-20T13:29:33;4.37;;;3.60;;
51244;SDS011;37840;47.562;18.738;2023-04-20T13:31:59;6.15;;;3.17;;
51244;SDS011;37840;47.562;18.738;2023-04-20T13:34:25;3.22;;;2.80;;
51244;SDS011;37840;47.562;18.738;2023-04-20T13:36:51;3.53;;;2.95;;
51244;SDS011;37840;47.562;18.738;2023-04-20T13:39:17;4.78;;;2.95;;
51244;SDS011;37840;47.562;18.738;2023-04-20T13:41:45;4.10;;;3.00;;
51244;SDS011;37840;47.562;18.738;2023-04-20T13:44:13;3.58;;;2.53;;
51244;SDS011;37840;47.562;18.738;2023-04-20T13:46:44;4.57;;;3.08;;
51244;SDS011;37840;47.562;18.738;2023-04-20T13:49:11;3.35;;;3.00;;
51244;SDS011;37840;47.562;18.738;2023-04-20T13:51:37;3.28;;;2.97;;
51244;SDS011;37840;47.562;18.738;2023-04-20T13:54:04;4.00;;;3.60;;
51244;SDS011;37840;47.562;18.738;2023-04-20T13:56:33;3.53;;;3.22;;
51244;SDS011;37840;47.562;18.738;2023-04-20T13:58:59;3.65;;;3.20;;
51244;SDS011;37840;47.562;18.738;2023-04-20T14:01:27;3.30;;;3.00;;
51244;SDS011;37840;47.562;18.738;2023-04-20T14:03:53;3.90;;;3.47;;
51244;SDS011;37840;47.562;18.738;2023-04-20T14:06:19;5.05;;;3.50;;
51244;SDS011;37840;47.562;18.738;2023-04-20T14:08:45;4.35;;;3.45;;
51244;SDS011;37840;47.562;18.738;2023-04-20T14:11:11;3.75;;;3.03;;
51244;SDS011;37840;47.562;18.738;2023-04-20T14:13:37;3.70;;;3.40;;
51244;SDS011;37840;47.562;18.738;2023-04-20T14:16:07;5.28;;;3.30;;
51244;SDS011;37840;47.562;18.738;2023-04-20T14:18:34;3.58;;;3.28;;
51244;SDS011;37840;47.562;18.738;2023-04-20T14:21:00;4.78;;;3.37;;
51244;SDS011;37840;47.562;18.738;2023-04-20T14:23:26;4.12;;;3.33;;
51244;SDS011;37840;47.562;18.738;2023-04-20T14:25:52;3.53;;;3.15;;